sensor_id;sensor_type;location;lat;lon;timestamp;P1;durP1;ratioP1;P2;durP2;ratioP2
16634;SDS011;8431;52.458;9.998;2023-08-06T00:02:22;8.90;;;8.60;;
16634;SDS011;8431;52.458;9.998;2023-08-06T00:04:49;9.15;;;8.85;;
16634;SDS011;8431;52.458;9.998;2023-08-06T00:07:16;8.80;;;8.50;;
16634;SDS011;8431;52.458;9.998;2023-08-06T00:09:45;8.98;;;8.68;;
16634;SDS011;8431;52.458;9.998;2023-08-06T00:12:12;8.90;;;8.60;;
16634;SDS011;8431;52.458;9.998;2023-08-06T00:14:41;9.20;;;8.90;;
16634;SDS011;8431;52.458;9.998;2023-08-06T00:17:08;9.10;;;8.80;;
16634;SDS011;8431;52.458;9.998;2023-08-06T00:19:35;9.15;;;8.85;;
16634;SDS011;8431;52.458;9.998;2023-08-06T00:22:04;9.18;;;8.88;;
16634;SDS011;8431;52.458;9.998;2023-08-06T00:24:31;9.55;;;9.25;;
16634;SDS011;8431;52.458;9.998;2023-08-06T00:26:58;9.20;;;8.90;;
16634;SDS011;8431;52.458;9.998;2023-08-06T00:29:30;9.80;;;9.50;;
16634;SDS011;8431;52.458;9.998;2023-08-06T00:31:58;9.40;;;9.10;;
16634;SDS011;8431;52.458;9.998;2023-08-06T00:34:25;8.95;;;8.65;;
16634;SDS011;8431;52.458;9.998;2023-08-06T00:36:53;9.18;;;8.88;;
16634;SDS011;8431;52.458;9.998;2023-08-06T00:39:22;9.10;;;8.80;;
16634;SDS011;8431;52.458;9.998;2023-08-06T00:41:49;9.30;;;9.00;;
16634;SDS011;8431;52.458;9.998;2023-08-06T00:44:16;9.32;;;9.02;;
16634;SDS011;8431;52.458;9.998;2023-08-06T00:46:43;9.75;;;9.45;;
16634;SDS011;8431;52.458;9.998;2023-08-06T00:49:12;9.27;;;8.98;;
16634;SDS011;8431;52.458;9.998;2023-08-06T00:51:39;9.40;;;9.10;;
16634;SDS011;8431;52.458;9.998;2023-08-06T00:54:06;9.48;;;9.18;;
16634;SDS011;8431;52.458;9.998;2023-08-06T00:56:33;9.13;;;8.82;;
16634;SDS011;8431;52.458;9.998;2023-08-06T00:59:01;8.90;;;8.60;;
16634;SDS011;8431;52.458;9.998;2023-08-06T01:01:29;9.40;;;9.10;;
16634;SDS011;8431;52.458;9.998;2023-08-06T01:03:56;9.40;;;9.10;;
16634;SDS011;8431;52.458;9.998;2023-08-06T01:06:28;9.20;;;8.90;;
16634;SDS011;8431;52.458;9.998;2023-08-06T01:09:07;9.25;;;8.95;;
16634;SDS011;8431;52.458;9.998;2023-08-06T01:11:51;9.15;;;8.85;;
16634;SDS011;8431;52.458;9.998;2023-08-06T01:14:27;9.02;;;8.73;;
16634;SDS011;8431;52.458;9.998;2023-08-06T01:16:56;8.93;;;8.63;;
16634;SDS011;8431;52.458;9.998;2023-08-06T01:19:25;9.68;;;9.38;;
16634;SDS011;8431;52.458;9.998;2023-08-06T01:21:53;9.52;;;9.23;;
16634;SDS011;8431;52.458;9.998;2023-08-06T01:24:20;9.93;;;9.63;;
16634;SDS011;8431;52.458;9.998;2023-08-06T01:26:48;9.48;;;9.18;;
16634;SDS011;8431;52.458;9.998;2023-08-06T01:31:54;9.50;;;9.20;;
16634;SDS011;8431;52.458;9.998;2023-08-06T01:34:24;9.65;;;9.35;;
16634;SDS011;8431;52.458;9.998;2023-08-06T01:36:56;9.07;;;8.77;;
16634;SDS011;8431;52.458;9.998;2023-08-06T01:39:24;9.18;;;8.88;;
16634;SDS011;8431;52.458;9.998;2023-08-06T01:41:51;9.85;;;9.55;;
16634;SDS011;8431;52.458;9.998;2023-08-06T01:44:18;9.95;;;9.65;;
16634;SDS011;8431;52.458;9.998;2023-08-06T01:46:45;9.80;;;9.50;;
16634;SDS011;8431;52.458;9.998;2023-08-06T01:49:12;9.32;;;9.02;;
16634;SDS011;8431;52.458;9.998;2023-08-06T01:51:39;9.57;;;9.27;;
16634;SDS011;8431;52.458;9.998;2023-08-06T01:54:07;9.45;;;9.15;;
16634;SDS011;8431;52.458;9.998;2023-08-06T01:56:34;9.68;;;9.38;;
16634;SDS011;8431;52.458;9.998;2023-08-06T01:59:01;10.40;;;9.90;;
16634;SDS011;8431;52.458;9.998;2023-08-06T02:01:28;11.57;;;11.18;;
16634;SDS011;8431;52.458;9.998;2023-08-06T02:03:55;9.70;;;9.40;;
16634;SDS011;8431;52.458;9.998;2023-08-06T02:06:22;9.60;;;9.30;;
16634;SDS011;8431;52.458;9.998;2023-08-06T02:08:49;9.68;;;9.38;;
16634;SDS011;8431;52.458;9.998;2023-08-06T02:11:18;9.80;;;9.50;;
16634;SDS011;8431;52.458;9.998;2023-08-06T02:13:45;9.95;;;9.65;;
16634;SDS011;8431;52.458;9.998;2023-08-06T02:16:12;10.10;;;9.80;;
16634;SDS011;8431;52.458;9.998;2023-08-06T02:18:39;9.70;;;9.40;;
16634;SDS011;8431;52.458;9.998;2023-08-06T02:21:06;9.98;;;9.68;;
16634;SDS011;8431;52.458;9.998;2023-08-06T02:23:33;9.90;;;9.60;;
16634;SDS011;8431;52.458;9.998;2023-08-06T02:26:00;9.57;;;9.27;;
16634;SDS011;8431;52.458;9.998;2023-08-06T02:28:29;9.98;;;9.68;;
16634;SDS011;8431;52.458;9.998;2023-08-06T02:30:57;9.63;;;9.32;;
16634;SDS011;8431;52.458;9.998;2023-08-06T02:33:24;9.82;;;9.52;;
16634;SDS011;8431;52.458;9.998;2023-08-06T02:35:51;9.90;;;9.60;;
16634;SDS011;8431;52.458;9.998;2023-08-06T02:38:24;10.30;;;10.00;;
16634;SDS011;8431;52.458;9.998;2023-08-06T02:40:51;9.88;;;9.57;;
16634;SDS011;8431;52.458;9.998;2023-08-06T02:43:18;10.02;;;9.73;;
16634;SDS011;8431;52.458;9.998;2023-08-06T02:45:46;9.48;;;9.18;;
16634;SDS011;8431;52.458;9.998;2023-08-06T02:48:13;9.82;;;9.52;;
16634;SDS011;8431;52.458;9.998;2023-08-06T02:50:41;9.95;;;9.65;;
16634;SDS011;8431;52.458;9.998;2023-08-06T02:53:08;9.18;;;8.88;;
16634;SDS011;8431;52.458;9.998;2023-08-06T02:55:35;9.52;;;9.23;;
16634;SDS011;8431;52.458;9.998;2023-08-06T02:58:02;9.43;;;9.13;;
16634;SDS011;8431;52.458;9.998;2023-08-06T03:00:29;9.07;;;8.77;;
16634;SDS011;8431;52.458;9.998;2023-08-06T03:02:58;9.45;;;9.15;;
16634;SDS011;8431;52.458;9.998;2023-08-06T03:05:25;9.48;;;9.18;;
16634;SDS011;8431;52.458;9.998;2023-08-06T03:07:52;9.52;;;9.23;;
16634;SDS011;8431;52.458;9.998;2023-08-06T03:10:19;9.52;;;9.23;;
16634;SDS011;8431;52.458;9.998;2023-08-06T03:12:46;9.63;;;9.32;;
16634;SDS011;8431;52.458;9.998;2023-08-06T03:15:13;9.80;;;9.50;;
16634;SDS011;8431;52.458;9.998;2023-08-06T03:17:40;9.20;;;8.90;;
16634;SDS011;8431;52.458;9.998;2023-08-06T03:20:08;9.40;;;9.10;;
16634;SDS011;8431;52.458;9.998;2023-08-06T03:22:36;9.50;;;9.20;;
16634;SDS011;8431;52.458;9.998;2023-08-06T03:25:03;9.30;;;9.00;;
16634;SDS011;8431;52.458;9.998;2023-08-06T03:27:31;9.38;;;9.07;;
16634;SDS011;8431;52.458;9.998;2023-08-06T03:29:58;9.20;;;8.90;;
16634;SDS011;8431;52.458;9.998;2023-08-06T03:32:26;9.13;;;8.82;;
16634;SDS011;8431;52.458;9.998;2023-08-06T03:34:53;10.10;;;9.80;;
16634;SDS011;8431;52.458;9.998;2023-08-06T03:37:21;9.60;;;9.30;;
16634;SDS011;8431;52.458;9.998;2023-08-06T03:39:48;10.65;;;10.25;;
16634;SDS011;8431;52.458;9.998;2023-08-06T03:42:15;9.88;;;9.57;;
16634;SDS011;8431;52.458;9.998;2023-08-06T03:44:44;9.77;;;9.48;;
16634;SDS011;8431;52.458;9.998;2023-08-06T03:47:12;9.68;;;9.38;;
16634;SDS011;8431;52.458;9.998;2023-08-06T03:49:39;9.70;;;9.40;;
16634;SDS011;8431;52.458;9.998;2023-08-06T03:52:06;9.43;;;9.13;;
16634;SDS011;8431;52.458;9.998;2023-08-06T03:54:35;9.60;;;9.30;;
16634;SDS011;8431;52.458;9.998;2023-08-06T03:57:02;9.63;;;9.32;;
16634;SDS011;8431;52.458;9.998;2023-08-06T03:59:29;9.98;;;9.68;;
16634;SDS011;8431;52.458;9.998;2023-08-06T04:01:56;9.85;;;9.55;;
16634;SDS011;8431;52.458;9.998;2023-08-06T04:04:23;9.27;;;8.98;;
16634;SDS011;8431;52.458;9.998;2023-08-06T04:06:50;9.40;;;9.10;;
16634;SDS011;8431;52.458;9.998;2023-08-06T04:09:17;9.18;;;8.88;;
16634;SDS011;8431;52.458;9.998;2023-08-06T04:11:45;9.18;;;8.88;;
16634;SDS011;8431;52.458;9.998;2023-08-06T04:14:12;8.75;;;8.45;;
16634;SDS011;8431;52.458;9.998;2023-08-06T04:16:39;9.10;;;8.80;;
16634;SDS011;8431;52.458;9.998;2023-08-06T04:19:06;9.50;;;9.20;;
16634;SDS011;8431;52.458;9.998;2023-08-06T04:21:33;9.38;;;9.07;;
16634;SDS011;8431;52.458;9.998;2023-08-06T04:24:00;9.50;;;9.20;;
16634;SDS011;8431;52.458;9.998;2023-08-06T04:26:27;9.60;;;9.30;;
16634;SDS011;8431;52.458;9.998;2023-08-06T04:28:55;9.50;;;9.20;;
16634;SDS011;8431;52.458;9.998;2023-08-06T04:31:22;9.80;;;9.50;;
16634;SDS011;8431;52.458;9.998;2023-08-06T04:33:49;9.32;;;9.02;;
16634;SDS011;8431;52.458;9.998;2023-08-06T04:36:16;9.40;;;9.10;;
16634;SDS011;8431;52.458;9.998;2023-08-06T04:38:43;9.40;;;9.10;;
16634;SDS011;8431;52.458;9.998;2023-08-06T04:41:12;9.15;;;8.85;;
16634;SDS011;8431;52.458;9.998;2023-08-06T04:43:39;9.50;;;9.20;;
16634;SDS011;8431;52.458;9.998;2023-08-06T04:46:07;9.20;;;8.90;;
16634;SDS011;8431;52.458;9.998;2023-08-06T04:48:34;9.38;;;9.07;;
16634;SDS011;8431;52.458;9.998;2023-08-06T04:51:01;9.38;;;9.07;;
16634;SDS011;8431;52.458;9.998;2023-08-06T04:53:28;9.30;;;9.00;;
16634;SDS011;8431;52.458;9.998;2023-08-06T04:55:55;9.18;;;8.88;;
16634;SDS011;8431;52.458;9.998;2023-08-06T04:58:24;8.90;;;8.60;;
16634;SDS011;8431;52.458;9.998;2023-08-06T05:00:52;9.40;;;9.10;;
16634;SDS011;8431;52.458;9.998;2023-08-06T05:03:21;9.20;;;8.80;;
16634;SDS011;8431;52.458;9.998;2023-08-06T05:05:48;8.82;;;8.52;;
16634;SDS011;8431;52.458;9.998;2023-08-06T05:08:15;9.23;;;8.93;;
16634;SDS011;8431;52.458;9.998;2023-08-06T05:10:43;9.18;;;8.88;;
16634;SDS011;8431;52.458;9.998;2023-08-06T05:13:10;9.40;;;9.10;;
16634;SDS011;8431;52.458;9.998;2023-08-06T05:15:37;9.02;;;8.73;;
16634;SDS011;8431;52.458;9.998;2023-08-06T05:18:07;9.60;;;9.30;;
16634;SDS011;8431;52.458;9.998;2023-08-06T05:20:37;9.60;;;9.30;;
16634;SDS011;8431;52.458;9.998;2023-08-06T05:23:04;9.38;;;9.07;;
16634;SDS011;8431;52.458;9.998;2023-08-06T05:25:31;9.60;;;9.30;;
16634;SDS011;8431;52.458;9.998;2023-08-06T05:28:00;9.50;;;9.20;;
16634;SDS011;8431;52.458;9.998;2023-08-06T05:30:27;8.20;;;8.00;;
16634;SDS011;8431;52.458;9.998;2023-08-06T05:32:54;7.80;;;7.60;;
16634;SDS011;8431;52.458;9.998;2023-08-06T05:35:21;8.57;;;8.27;;
16634;SDS011;8431;52.458;9.998;2023-08-06T05:37:51;8.93;;;8.63;;
16634;SDS011;8431;52.458;9.998;2023-08-06T05:40:19;8.75;;;8.45;;
16634;SDS011;8431;52.458;9.998;2023-08-06T05:42:46;8.75;;;8.45;;
16634;SDS011;8431;52.458;9.998;2023-08-06T05:45:13;8.60;;;8.30;;
16634;SDS011;8431;52.458;9.998;2023-08-06T05:47:40;8.80;;;8.50;;
16634;SDS011;8431;52.458;9.998;2023-08-06T05:50:08;8.90;;;8.60;;
16634;SDS011;8431;52.458;9.998;2023-08-06T05:52:35;8.52;;;8.23;;
16634;SDS011;8431;52.458;9.998;2023-08-06T05:55:03;8.15;;;7.95;;
16634;SDS011;8431;52.458;9.998;2023-08-06T05:57:31;8.40;;;8.15;;
16634;SDS011;8431;52.458;9.998;2023-08-06T05:59:58;9.05;;;8.65;;
16634;SDS011;8431;52.458;9.998;2023-08-06T06:02:25;8.75;;;8.45;;
16634;SDS011;8431;52.458;9.998;2023-08-06T06:04:52;9.35;;;9.05;;
16634;SDS011;8431;52.458;9.998;2023-08-06T06:07:19;9.70;;;9.40;;
16634;SDS011;8431;52.458;9.998;2023-08-06T06:09:46;9.68;;;9.38;;
16634;SDS011;8431;52.458;9.998;2023-08-06T06:12:14;9.80;;;9.50;;
16634;SDS011;8431;52.458;9.998;2023-08-06T06:14:41;10.00;;;9.70;;
16634;SDS011;8431;52.458;9.998;2023-08-06T06:17:08;10.60;;;10.20;;
16634;SDS011;8431;52.458;9.998;2023-08-06T06:19:35;10.90;;;10.50;;
16634;SDS011;8431;52.458;9.998;2023-08-06T06:22:02;10.05;;;9.75;;
16634;SDS011;8431;52.458;9.998;2023-08-06T06:24:29;10.20;;;9.90;;
16634;SDS011;8431;52.458;9.998;2023-08-06T06:26:56;11.57;;;11.15;;
16634;SDS011;8431;52.458;9.998;2023-08-06T06:29:24;10.85;;;10.45;;
16634;SDS011;8431;52.458;9.998;2023-08-06T06:31:51;11.73;;;11.32;;
16634;SDS011;8431;52.458;9.998;2023-08-06T06:34:18;11.60;;;11.20;;
16634;SDS011;8431;52.458;9.998;2023-08-06T06:36:45;11.07;;;10.68;;
16634;SDS011;8431;52.458;9.998;2023-08-06T06:39:12;11.40;;;11.00;;
16634;SDS011;8431;52.458;9.998;2023-08-06T06:41:39;11.70;;;11.30;;
16634;SDS011;8431;52.458;9.998;2023-08-06T06:44:06;11.40;;;11.00;;
16634;SDS011;8431;52.458;9.998;2023-08-06T06:46:34;13.13;;;12.63;;
16634;SDS011;8431;52.458;9.998;2023-08-06T06:49:01;12.85;;;12.35;;
16634;SDS011;8431;52.458;9.998;2023-08-06T06:51:28;14.18;;;13.48;;
16634;SDS011;8431;52.458;9.998;2023-08-06T06:53:56;14.10;;;13.50;;
16634;SDS011;8431;52.458;9.998;2023-08-06T06:56:24;12.90;;;12.40;;
16634;SDS011;8431;52.458;9.998;2023-08-06T06:58:50;15.30;;;14.43;;
16634;SDS011;8431;52.458;9.998;2023-08-06T07:01:17;13.10;;;12.60;;
16634;SDS011;8431;52.458;9.998;2023-08-06T07:03:46;13.00;;;12.50;;
16634;SDS011;8431;52.458;9.998;2023-08-06T07:06:13;13.75;;;13.15;;
16634;SDS011;8431;52.458;9.998;2023-08-06T07:08:40;13.02;;;12.52;;
16634;SDS011;8431;52.458;9.998;2023-08-06T07:11:07;11.90;;;11.50;;
16634;SDS011;8431;52.458;9.998;2023-08-06T07:13:34;13.52;;;13.02;;
16634;SDS011;8431;52.458;9.998;2023-08-06T07:16:01;12.43;;;11.93;;
16634;SDS011;8431;52.458;9.998;2023-08-06T07:18:29;12.93;;;12.43;;
16634;SDS011;8431;52.458;9.998;2023-08-06T07:20:57;14.25;;;13.65;;
16634;SDS011;8431;52.458;9.998;2023-08-06T07:23:25;13.13;;;12.63;;
16634;SDS011;8431;52.458;9.998;2023-08-06T07:25:52;14.82;;;14.23;;
16634;SDS011;8431;52.458;9.998;2023-08-06T07:28:19;12.98;;;12.48;;
16634;SDS011;8431;52.458;9.998;2023-08-06T07:30:47;13.13;;;12.63;;
16634;SDS011;8431;52.458;9.998;2023-08-06T07:33:14;14.27;;;13.68;;
16634;SDS011;8431;52.458;9.998;2023-08-06T07:35:42;13.27;;;12.75;;
16634;SDS011;8431;52.458;9.998;2023-08-06T07:38:11;13.43;;;12.93;;
16634;SDS011;8431;52.458;9.998;2023-08-06T07:40:38;13.90;;;13.30;;
16634;SDS011;8431;52.458;9.998;2023-08-06T07:43:05;15.18;;;14.57;;
16634;SDS011;8431;52.458;9.998;2023-08-06T07:45:32;15.57;;;14.88;;
16634;SDS011;8431;52.458;9.998;2023-08-06T07:48:01;14.98;;;14.38;;
16634;SDS011;8431;52.458;9.998;2023-08-06T07:50:28;15.63;;;14.93;;
16634;SDS011;8431;52.458;9.998;2023-08-06T07:52:55;16.40;;;15.70;;
16634;SDS011;8431;52.458;9.998;2023-08-06T07:55:23;16.33;;;15.63;;
16634;SDS011;8431;52.458;9.998;2023-08-06T07:57:53;16.15;;;15.40;;
16634;SDS011;8431;52.458;9.998;2023-08-06T08:00:20;16.33;;;15.63;;
16634;SDS011;8431;52.458;9.998;2023-08-06T08:02:54;16.65;;;15.95;;
16634;SDS011;8431;52.458;9.998;2023-08-06T08:05:20;15.45;;;14.85;;
16634;SDS011;8431;52.458;9.998;2023-08-06T08:07:47;15.18;;;14.57;;
16634;SDS011;8431;52.458;9.998;2023-08-06T08:10:14;14.65;;;14.05;;
16634;SDS011;8431;52.458;9.998;2023-08-06T08:12:43;15.52;;;14.88;;
16634;SDS011;8431;52.458;9.998;2023-08-06T08:15:12;15.73;;;15.05;;
16634;SDS011;8431;52.458;9.998;2023-08-06T08:17:39;16.13;;;15.43;;
16634;SDS011;8431;52.458;9.998;2023-08-06T08:20:06;16.42;;;15.73;;
16634;SDS011;8431;52.458;9.998;2023-08-06T08:22:34;15.80;;;15.10;;
16634;SDS011;8431;52.458;9.998;2023-08-06T08:25:01;15.77;;;15.10;;
16634;SDS011;8431;52.458;9.998;2023-08-06T08:27:29;16.42;;;15.73;;
16634;SDS011;8431;52.458;9.998;2023-08-06T08:29:58;18.67;;;17.77;;
16634;SDS011;8431;52.458;9.998;2023-08-06T08:32:25;17.90;;;17.10;;
16634;SDS011;8431;52.458;9.998;2023-08-06T08:34:53;18.17;;;17.38;;
16634;SDS011;8431;52.458;9.998;2023-08-06T08:39:51;17.55;;;16.75;;
16634;SDS011;8431;52.458;9.998;2023-08-06T08:42:18;17.92;;;17.13;;
16634;SDS011;8431;52.458;9.998;2023-08-06T08:44:46;17.13;;;16.42;;
16634;SDS011;8431;52.458;9.998;2023-08-06T08:47:14;16.90;;;16.10;;
16634;SDS011;8431;52.458;9.998;2023-08-06T08:49:42;16.80;;;16.10;;
16634;SDS011;8431;52.458;9.998;2023-08-06T08:52:15;17.50;;;16.70;;
16634;SDS011;8431;52.458;9.998;2023-08-06T08:54:44;16.98;;;16.27;;
16634;SDS011;8431;52.458;9.998;2023-08-06T08:57:18;16.25;;;15.55;;
16634;SDS011;8431;52.458;9.998;2023-08-06T08:59:48;16.48;;;15.77;;
16634;SDS011;8431;52.458;9.998;2023-08-06T09:02:17;16.33;;;15.63;;
16634;SDS011;8431;52.458;9.998;2023-08-06T09:04:47;17.73;;;16.92;;
16634;SDS011;8431;52.458;9.998;2023-08-06T09:07:16;16.70;;;16.00;;
16634;SDS011;8431;52.458;9.998;2023-08-06T09:12:18;21.38;;;20.05;;
16634;SDS011;8431;52.458;9.998;2023-08-06T09:14:45;17.92;;;17.13;;
16634;SDS011;8431;52.458;9.998;2023-08-06T09:17:12;18.17;;;17.38;;
16634;SDS011;8431;52.458;9.998;2023-08-06T09:19:51;17.50;;;16.70;;
16634;SDS011;8431;52.458;9.998;2023-08-06T09:22:21;18.38;;;17.58;;
16634;SDS011;8431;52.458;9.998;2023-08-06T09:24:53;18.98;;;18.17;;
16634;SDS011;8431;52.458;9.998;2023-08-06T09:27:35;18.55;;;17.75;;
16634;SDS011;8431;52.458;9.998;2023-08-06T09:30:10;16.13;;;15.43;;
16634;SDS011;8431;52.458;9.998;2023-08-06T09:32:59;18.27;;;17.48;;
16634;SDS011;8431;52.458;9.998;2023-08-06T09:35:28;17.27;;;16.55;;
16634;SDS011;8431;52.458;9.998;2023-08-06T09:37:55;17.83;;;17.02;;
16634;SDS011;8431;52.458;9.998;2023-08-06T09:40:26;19.70;;;18.80;;
16634;SDS011;8431;52.458;9.998;2023-08-06T09:42:54;17.73;;;16.92;;
16634;SDS011;8431;52.458;9.998;2023-08-06T09:45:21;17.30;;;16.60;;
16634;SDS011;8431;52.458;9.998;2023-08-06T09:47:48;16.85;;;16.15;;
16634;SDS011;8431;52.458;9.998;2023-08-06T09:50:20;18.58;;;17.77;;
16634;SDS011;8431;52.458;9.998;2023-08-06T09:52:48;19.73;;;18.83;;
16634;SDS011;8431;52.458;9.998;2023-08-06T09:55:16;19.65;;;18.75;;
16634;SDS011;8431;52.458;9.998;2023-08-06T09:57:46;18.73;;;17.92;;
16634;SDS011;8431;52.458;9.998;2023-08-06T10:00:14;17.65;;;16.95;;
16634;SDS011;8431;52.458;9.998;2023-08-06T10:02:42;17.30;;;16.60;;
16634;SDS011;8431;52.458;9.998;2023-08-06T10:05:10;18.63;;;17.83;;
16634;SDS011;8431;52.458;9.998;2023-08-06T10:07:38;17.25;;;16.55;;
16634;SDS011;8431;52.458;9.998;2023-08-06T10:10:06;18.58;;;17.77;;
16634;SDS011;8431;52.458;9.998;2023-08-06T10:12:34;17.60;;;16.90;;
16634;SDS011;8431;52.458;9.998;2023-08-06T10:15:06;19.20;;;18.40;;
16634;SDS011;8431;52.458;9.998;2023-08-06T10:17:37;17.10;;;16.40;;
16634;SDS011;8431;52.458;9.998;2023-08-06T10:20:05;17.48;;;16.67;;
16634;SDS011;8431;52.458;9.998;2023-08-06T10:22:34;16.60;;;15.90;;
16634;SDS011;8431;52.458;9.998;2023-08-06T10:25:03;18.48;;;17.67;;
16634;SDS011;8431;52.458;9.998;2023-08-06T10:27:31;18.27;;;17.48;;
16634;SDS011;8431;52.458;9.998;2023-08-06T10:32:49;17.23;;;16.52;;
16634;SDS011;8431;52.458;9.998;2023-08-06T10:35:35;17.02;;;16.33;;
16634;SDS011;8431;52.458;9.998;2023-08-06T10:38:03;18.55;;;17.75;;
16634;SDS011;8431;52.458;9.998;2023-08-06T10:40:33;19.98;;;19.08;;
16634;SDS011;8431;52.458;9.998;2023-08-06T10:43:00;19.45;;;18.65;;
16634;SDS011;8431;52.458;9.998;2023-08-06T10:45:27;18.90;;;18.10;;
16634;SDS011;8431;52.458;9.998;2023-08-06T10:47:55;18.98;;;18.17;;
16634;SDS011;8431;52.458;9.998;2023-08-06T10:50:23;19.85;;;18.95;;
16634;SDS011;8431;52.458;9.998;2023-08-06T10:52:50;18.90;;;18.10;;
16634;SDS011;8431;52.458;9.998;2023-08-06T10:55:25;18.42;;;17.63;;
16634;SDS011;8431;52.458;9.998;2023-08-06T10:57:54;19.23;;;18.42;;
16634;SDS011;8431;52.458;9.998;2023-08-06T11:00:22;17.63;;;16.92;;
16634;SDS011;8431;52.458;9.998;2023-08-06T11:02:49;17.90;;;17.10;;
16634;SDS011;8431;52.458;9.998;2023-08-06T11:05:17;15.82;;;15.18;;
16634;SDS011;8431;52.458;9.998;2023-08-06T11:07:44;15.80;;;15.10;;
16634;SDS011;8431;52.458;9.998;2023-08-06T11:10:13;15.90;;;15.20;;
16634;SDS011;8431;52.458;9.998;2023-08-06T11:12:40;16.75;;;16.05;;
16634;SDS011;8431;52.458;9.998;2023-08-06T11:15:09;17.38;;;16.58;;
16634;SDS011;8431;52.458;9.998;2023-08-06T11:17:37;16.70;;;16.00;;
16634;SDS011;8431;52.458;9.998;2023-08-06T11:20:06;18.05;;;17.25;;
16634;SDS011;8431;52.458;9.998;2023-08-06T11:22:35;15.43;;;14.82;;
16634;SDS011;8431;52.458;9.998;2023-08-06T11:25:04;17.50;;;16.80;;
16634;SDS011;8431;52.458;9.998;2023-08-06T11:27:32;16.63;;;15.93;;
16634;SDS011;8431;52.458;9.998;2023-08-06T11:29:59;17.65;;;16.85;;
16634;SDS011;8431;52.458;9.998;2023-08-06T11:32:27;21.05;;;20.15;;
16634;SDS011;8431;52.458;9.998;2023-08-06T11:34:54;18.25;;;17.45;;
16634;SDS011;8431;52.458;9.998;2023-08-06T11:37:22;19.20;;;18.40;;
16634;SDS011;8431;52.458;9.998;2023-08-06T11:39:50;18.40;;;17.60;;
16634;SDS011;8431;52.458;9.998;2023-08-06T11:42:18;18.50;;;17.70;;
16634;SDS011;8431;52.458;9.998;2023-08-06T11:44:45;18.13;;;17.33;;
16634;SDS011;8431;52.458;9.998;2023-08-06T11:47:13;18.42;;;17.63;;
16634;SDS011;8431;52.458;9.998;2023-08-06T11:49:43;16.33;;;15.63;;
16634;SDS011;8431;52.458;9.998;2023-08-06T11:52:13;17.50;;;16.70;;
16634;SDS011;8431;52.458;9.998;2023-08-06T11:54:43;18.08;;;17.27;;
16634;SDS011;8431;52.458;9.998;2023-08-06T11:57:10;20.25;;;19.35;;
16634;SDS011;8431;52.458;9.998;2023-08-06T11:59:38;18.58;;;17.77;;
16634;SDS011;8431;52.458;9.998;2023-08-06T12:02:07;17.80;;;17.00;;
16634;SDS011;8431;52.458;9.998;2023-08-06T12:07:28;16.58;;;15.88;;
16634;SDS011;8431;52.458;9.998;2023-08-06T12:09:55;17.92;;;17.13;;
16634;SDS011;8431;52.458;9.998;2023-08-06T12:12:22;17.10;;;16.40;;
16634;SDS011;8431;52.458;9.998;2023-08-06T12:14:49;15.38;;;14.77;;
16634;SDS011;8431;52.458;9.998;2023-08-06T12:17:16;16.98;;;16.27;;
16634;SDS011;8431;52.458;9.998;2023-08-06T12:19:44;16.60;;;15.90;;
16634;SDS011;8431;52.458;9.998;2023-08-06T12:22:13;17.77;;;16.98;;
16634;SDS011;8431;52.458;9.998;2023-08-06T12:24:40;16.45;;;15.75;;
16634;SDS011;8431;52.458;9.998;2023-08-06T12:27:07;16.63;;;15.93;;
16634;SDS011;8431;52.458;9.998;2023-08-06T12:29:35;18.05;;;17.25;;
16634;SDS011;8431;52.458;9.998;2023-08-06T12:32:02;17.45;;;16.65;;
16634;SDS011;8431;52.458;9.998;2023-08-06T12:34:30;17.70;;;16.90;;
16634;SDS011;8431;52.458;9.998;2023-08-06T12:36:57;19.02;;;18.13;;
16634;SDS011;8431;52.458;9.998;2023-08-06T12:39:25;17.33;;;16.50;;
16634;SDS011;8431;52.458;9.998;2023-08-06T12:41:53;18.50;;;17.60;;
16634;SDS011;8431;52.458;9.998;2023-08-06T12:44:22;16.20;;;15.50;;
16634;SDS011;8431;52.458;9.998;2023-08-06T12:46:49;17.88;;;17.08;;
16634;SDS011;8431;52.458;9.998;2023-08-06T12:49:17;17.85;;;17.05;;
16634;SDS011;8431;52.458;9.998;2023-08-06T12:51:46;17.77;;;16.98;;
16634;SDS011;8431;52.458;9.998;2023-08-06T12:54:13;17.67;;;16.88;;
16634;SDS011;8431;52.458;9.998;2023-08-06T12:56:41;17.98;;;17.17;;
16634;SDS011;8431;52.458;9.998;2023-08-06T12:59:08;19.27;;;18.38;;
16634;SDS011;8431;52.458;9.998;2023-08-06T13:01:36;18.58;;;17.77;;
16634;SDS011;8431;52.458;9.998;2023-08-06T13:04:03;17.05;;;16.35;;
16634;SDS011;8431;52.458;9.998;2023-08-06T13:06:31;17.85;;;17.05;;
16634;SDS011;8431;52.458;9.998;2023-08-06T13:09:01;18.30;;;17.50;;
16634;SDS011;8431;52.458;9.998;2023-08-06T13:11:28;19.15;;;18.35;;
16634;SDS011;8431;52.458;9.998;2023-08-06T13:13:58;17.98;;;17.17;;
16634;SDS011;8431;52.458;9.998;2023-08-06T13:16:29;18.52;;;17.63;;
16634;SDS011;8431;52.458;9.998;2023-08-06T13:18:56;17.50;;;16.80;;
16634;SDS011;8431;52.458;9.998;2023-08-06T13:21:23;17.98;;;17.17;;
16634;SDS011;8431;52.458;9.998;2023-08-06T13:23:50;18.00;;;17.20;;
16634;SDS011;8431;52.458;9.998;2023-08-06T13:26:17;18.15;;;17.35;;
16634;SDS011;8431;52.458;9.998;2023-08-06T13:28:44;18.67;;;17.77;;
16634;SDS011;8431;52.458;9.998;2023-08-06T13:31:12;17.88;;;17.08;;
16634;SDS011;8431;52.458;9.998;2023-08-06T13:33:39;17.98;;;17.17;;
16634;SDS011;8431;52.458;9.998;2023-08-06T13:36:06;19.48;;;18.58;;
16634;SDS011;8431;52.458;9.998;2023-08-06T13:38:33;18.33;;;17.42;;
16634;SDS011;8431;52.458;9.998;2023-08-06T13:41:05;19.25;;;18.25;;
16634;SDS011;8431;52.458;9.998;2023-08-06T13:43:32;19.63;;;18.60;;
16634;SDS011;8431;52.458;9.998;2023-08-06T13:45:58;20.77;;;19.73;;
16634;SDS011;8431;52.458;9.998;2023-08-06T13:48:27;20.15;;;19.05;;
16634;SDS011;8431;52.458;9.998;2023-08-06T13:50:54;20.35;;;19.35;;
16634;SDS011;8431;52.458;9.998;2023-08-06T13:53:21;18.35;;;17.45;;
16634;SDS011;8431;52.458;9.998;2023-08-06T13:55:48;20.60;;;19.45;;
16634;SDS011;8431;52.458;9.998;2023-08-06T13:58:15;19.85;;;18.60;;
16634;SDS011;8431;52.458;9.998;2023-08-06T14:00:42;23.00;;;21.80;;
16634;SDS011;8431;52.458;9.998;2023-08-06T14:03:08;20.35;;;19.30;;
16634;SDS011;8431;52.458;9.998;2023-08-06T14:05:37;20.20;;;19.20;;
16634;SDS011;8431;52.458;9.998;2023-08-06T14:08:04;20.23;;;19.13;;
16634;SDS011;8431;52.458;9.998;2023-08-06T14:10:31;20.33;;;19.23;;
16634;SDS011;8431;52.458;9.998;2023-08-06T14:12:58;18.60;;;17.50;;
16634;SDS011;8431;52.458;9.998;2023-08-06T14:15:25;20.75;;;19.65;;
16634;SDS011;8431;52.458;9.998;2023-08-06T14:17:52;20.90;;;19.80;;
16634;SDS011;8431;52.458;9.998;2023-08-06T14:20:19;19.92;;;18.92;;
16634;SDS011;8431;52.458;9.998;2023-08-06T14:22:47;20.55;;;19.45;;
16634;SDS011;8431;52.458;9.998;2023-08-06T14:25:14;19.30;;;18.40;;
16634;SDS011;8431;52.458;9.998;2023-08-06T14:27:41;20.55;;;19.55;;
16634;SDS011;8431;52.458;9.998;2023-08-06T14:30:08;20.58;;;19.48;;
16634;SDS011;8431;52.458;9.998;2023-08-06T14:32:36;19.88;;;18.88;;
16634;SDS011;8431;52.458;9.998;2023-08-06T14:35:03;20.48;;;19.48;;
16634;SDS011;8431;52.458;9.998;2023-08-06T14:37:30;21.60;;;20.30;;
16634;SDS011;8431;52.458;9.998;2023-08-06T14:39:59;19.35;;;18.35;;
16634;SDS011;8431;52.458;9.998;2023-08-06T14:42:26;20.08;;;19.08;;
16634;SDS011;8431;52.458;9.998;2023-08-06T14:44:53;20.98;;;19.35;;
16634;SDS011;8431;52.458;9.998;2023-08-06T14:47:19;20.25;;;19.23;;
16634;SDS011;8431;52.458;9.998;2023-08-06T14:49:46;19.88;;;18.88;;
16634;SDS011;8431;52.458;9.998;2023-08-06T14:52:14;21.35;;;20.08;;
16634;SDS011;8431;52.458;9.998;2023-08-06T14:54:41;21.83;;;20.10;;
16634;SDS011;8431;52.458;9.998;2023-08-06T14:57:10;20.75;;;19.65;;
16634;SDS011;8431;52.458;9.998;2023-08-06T14:59:38;20.92;;;19.83;;
16634;SDS011;8431;52.458;9.998;2023-08-06T15:02:05;20.60;;;19.45;;
16634;SDS011;8431;52.458;9.998;2023-08-06T15:04:32;19.85;;;18.85;;